Time,TemperatureF,DewpointF,PressureIn,WindDirection,WindDirectionDegrees,WindSpeedMPH,WindSpeedGustMPH,Humidity,HourlyPrecipIn,Conditions,Clouds,dailyrainin,SolarRadiationWatts/m^2,SoftwareType,DateUTC
2013-01-12 00:00:00,8.9,6.6,-100.00,SW,223,2.2,4.5,90,0.00,,,-99.99,1.0,HOBO +U30 +Weather +,2013-01-12 07:00:00,
2013-01-12 00:05:00,9.3,7.1,-100.00,SSW,204,2.2,5.1,90,0.00,,,-99.99,1.0,HOBO +U30 +Weather +,2013-01-12 07:05:00,
2013-01-12 00:10:00,9.0,6.8,-100.00,SSW,206,3.4,6.3,90,0.00,,,-99.99,1.0,HOBO +U30 +Weather +,2013-01-12 07:10:00,
2013-01-12 00:15:00,8.6,6.4,-100.00,SSW,209,2.9,6.3,90,0.00,,,-99.99,1.0,HOBO +U30 +Weather +,2013-01-12 07:15:00,
2013-01-12 00:20:00,9.3,7.2,-100.00,SSW,208,1.1,4.5,91,0.00,,,-99.99,1.0,HOBO +U30 +Weather +,2013-01-12 07:20:00,
2013-01-12 00:25:00,9.7,7.6,-100.00,SSW,213,0.7,3.4,90,0.00,,,-99.99,1.0,HOBO +U30 +Weather +,2013-01-12 07:25:00,
2013-01-12 00:30:00,8.8,6.5,-100.00,SW,216,0.7,4.0,90,0.00,,,-99.99,1.0,HOBO +U30 +Weather +,2013-01-12 07:30:00,
2013-01-12 00:35:00,9.2,7.1,-100.00,WSW,240,0.7,4.0,91,0.00,,,-99.99,1.0,HOBO +U30 +Weather +,2013-01-12 07:35:00,
2013-01-12 00:40:00,9.4,7.3,-100.00,WSW,251,0.7,3.4,91,0.00,,,-99.99,1.0,HOBO +U30 +Weather +,2013-01-12 07:40:00,
2013-01-12 00:45:00,8.4,6.2,-100.00,West,264,2.2,4.0,90,0.00,,,-99.99,1.0,HOBO +U30 +Weather +,2013-01-12 07:45:00,
2013-01-12 00:50:00,8.4,6.2,-100.00,West,272,0.7,2.9,90,0.00,,,-99.99,1.0,HOBO +U30 +Weather +,2013-01-12 07:50:00,
2013-01-12 00:55:00,9.4,7.4,-100.00,West,274,0.0,1.8,91,0.00,,,-99.99,1.0,HOBO +U30 +Weather +,2013-01-12 07:55:00,
2013-01-12 01:00:00,9.5,7.5,-100.00,West,274,0.0,0.7,91,0.00,,,-99.99,1.0,HOBO +U30 +Weather +,2013-01-12 08:00:00,
2013-01-12 01:05:00,10.0,8.0,-100.00,West,265,0.0,1.1,91,0.00,,,-99.99,1.0,HOBO +U30 +Weather +,2013-01-12 08:05:00,
2013-01-12 01:10:00,10.0,7.8,-100.00,SW,223,1.1,4.5,90,0.00,,,-99.99,1.0,HOBO +U30 +Weather +,2013-01-12 08:10:00,
2013-01-12 01:15:00,8.1,5.9,-100.00,South,170,2.9,4.5,90,0.00,,,-99.99,1.0,HOBO +U30 +Weather +,2013-01-12 08:15:00,
2013-01-12 01:20:00,9.2,7.2,-100.00,SSE,167,0.7,2.2,91,0.00,,,-99.99,1.0,HOBO +U30 +Weather +,2013-01-12 08:20:00,
2013-01-12 01:25:00,8.2,5.9,-100.00,South,173,2.9,5.6,90,0.00,,,-99.99,1.0,HOBO +U30 +Weather +,2013-01-12 08:25:00,
2013-01-12 01:30:00,8.2,6.0,-100.00,South,181,3.4,5.6,90,0.00,,,-99.99,1.0,HOBO +U30 +Weather +,2013-01-12 08:30:00,
2013-01-12 01:35:00,8.6,6.3,-100.00,South,185,2.2,4.0,90,0.00,,,-99.99,1.0,HOBO +U30 +Weather +,2013-01-12 08:35:00,
2013-01-12 01:40:00,7.9,5.6,-100.00,SSE,167,4.0,6.3,90,0.00,,,-99.99,1.0,HOBO +U30 +Weather +,2013-01-12 08:40:00,
2013-01-12 01:45:00,7.7,5.4,-100.00,South,185,5.1,6.7,90,0.00,,,-99.99,1.0,HOBO +U30 +Weather +,2013-01-12 08:45:00,
2013-01-12 01:50:00,8.4,6.2,-100.00,South,191,4.0,5.6,90,0.00,,,-99.99,1.0,HOBO +U30 +Weather +,2013-01-12 08:50:00,
2013-01-12 01:55:00,8.2,6.0,-100.00,SSW,202,3.4,6.3,90,0.00,,,-99.99,1.0,HOBO +U30 +Weather +,2013-01-12 08:55:00,
2013-01-12 02:00:00,8.4,6.1,-100.00,SSW,201,3.4,6.3,90,0.00,,,-99.99,1.0,HOBO +U30 +Weather +,2013-01-12 09:00:00,
2013-01-12 02:05:00,8.6,6.3,-100.00,SSW,199,3.4,5.6,90,0.00,,,-99.99,1.0,HOBO +U30 +Weather +,2013-01-12 09:05:00,
2013-01-12 02:10:00,8.4,6.1,-100.00,SSW,198,4.0,6.3,90,0.00,,,-99.99,1.0,HOBO +U30 +Weather +,2013-01-12 09:10:00,
2013-01-12 02:15:00,8.4,6.2,-100.00,SSW,195,4.5,7.4,90,0.00,,,-99.99,1.0,HOBO +U30 +Weather +,2013-01-12 09:15:00,
2013-01-12 02:20:00,8.4,6.2,-100.00,SSW,201,4.0,6.3,90,0.00,,,-99.99,1.0,HOBO +U30 +Weather +,2013-01-12 09:20:00,
2013-01-12 02:25:00,8.9,6.6,-100.00,SSW,205,2.9,4.5,90,0.00,,,-99.99,1.0,HOBO +U30 +Weather +,2013-01-12 09:25:00,
2013-01-12 02:30:00,8.7,6.4,-100.00,SW,225,1.8,5.1,90,0.00,,,-99.99,1.0,HOBO +U30 +Weather +,2013-01-12 09:30:00,
2013-01-12 02:35:00,8.7,6.4,-100.00,WSW,239,1.8,4.0,90,0.00,,,-99.99,1.0,HOBO +U30 +Weather +,2013-01-12 09:35:00,
2013-01-12 02:40:00,8.9,6.6,-100.00,WSW,237,2.2,4.0,90,0.00,,,-99.99,1.0,HOBO +U30 +Weather +,2013-01-12 09:40:00,
2013-01-12 02:45:00,9.4,7.2,-100.00,SSW,208,2.2,5.1,90,0.00,,,-99.99,1.0,HOBO +U30 +Weather +,2013-01-12 09:45:00,
2013-01-12 02:50:00,9.3,7.1,-100.00,SSW,199,2.2,5.6,90,0.00,,,-99.99,1.0,HOBO +U30 +Weather +,2013-01-12 09:50:00,
2013-01-12 02:55:00,8.9,6.5,-100.00,South,190,2.9,5.1,90,0.00,,,-99.99,1.0,HOBO +U30 +Weather +,2013-01-12 09:55:00,
2013-01-12 03:00:00,8.9,6.7,-100.00,South,185,2.2,3.4,90,0.00,,,-99.99,1.0,HOBO +U30 +Weather +,2013-01-12 10:00:00,
2013-01-12 03:05:00,9.1,6.7,-100.00,South,187,1.1,2.9,90,0.00,,,-99.99,1.0,HOBO +U30 +Weather +,2013-01-12 10:05:00,
2013-01-12 03:10:00,8.4,6.2,-100.00,South,187,2.9,4.5,90,0.00,,,-99.99,1.0,HOBO +U30 +Weather +,2013-01-12 10:10:00,
2013-01-12 03:15:00,9.0,6.7,-100.00,SSW,197,2.2,4.5,90,0.00,,,-99.99,1.0,HOBO +U30 +Weather +,2013-01-12 10:15:00,
2013-01-12 03:20:00,9.1,6.9,-100.00,South,187,1.8,4.0,90,0.00,,,-99.99,1.0,HOBO +U30 +Weather +,2013-01-12 10:20:00,
2013-01-12 03:25:00,8.9,6.6,-100.00,South,187,2.2,4.5,90,0.00,,,-99.99,1.0,HOBO +U30 +Weather +,2013-01-12 10:25:00,
2013-01-12 03:30:00,9.6,7.4,-100.00,South,190,1.8,3.4,90,0.00,,,-99.99,1.0,HOBO +U30 +Weather +,2013-01-12 10:30:00,
2013-01-12 03:35:00,10.5,8.5,-100.00,South,188,1.1,2.9,91,0.00,,,-99.99,1.0,HOBO +U30 +Weather +,2013-01-12 10:35:00,
2013-01-12 03:40:00,10.2,8.0,-100.00,South,188,0.7,2.2,90,0.00,,,-99.99,1.0,HOBO +U30 +Weather +,2013-01-12 10:40:00,
2013-01-12 03:45:00,10.1,7.8,-100.00,South,188,0.7,2.9,90,0.00,,,-99.99,1.0,HOBO +U30 +Weather +,2013-01-12 10:45:00,
2013-01-12 03:50:00,10.2,8.1,-100.00,South,187,0.7,2.2,91,0.00,,,-99.99,1.0,HOBO +U30 +Weather +,2013-01-12 10:50:00,
2013-01-12 03:55:00,10.1,8.0,-100.00,South,187,1.1,2.9,91,0.00,,,-99.99,1.0,HOBO +U30 +Weather +,2013-01-12 10:55:00,
2013-01-12 04:00:00,10.4,8.2,-100.00,South,187,0.7,2.9,90,0.00,,,-99.99,1.0,HOBO +U30 +Weather +,2013-01-12 11:00:00,
2013-01-12 04:05:00,9.6,7.4,-100.00,SSW,201,0.7,2.2,90,0.00,,,-99.99,1.0,HOBO +U30 +Weather +,2013-01-12 11:05:00,
2013-01-12 04:10:00,11.0,9.0,-100.00,SSW,201,0.0,1.1,91,0.00,,,-99.99,1.0,HOBO +U30 +Weather +,2013-01-12 11:10:00,
2013-01-12 04:15:00,10.8,8.6,-100.00,SSW,201,0.0,1.8,90,0.00,,,-99.99,1.0,HOBO +U30 +Weather +,2013-01-12 11:15:00,
2013-01-12 04:20:00,10.1,8.0,-100.00,SSW,201,0.0,1.1,91,0.00,,,-99.99,1.0,HOBO +U30 +Weather +,2013-01-12 11:20:00,
2013-01-12 04:25:00,10.6,8.6,-100.00,SSW,201,0.0,1.1,91,0.00,,,-99.99,1.0,HOBO +U30 +Weather +,2013-01-12 11:25:00,
2013-01-12 04:30:00,9.6,7.5,-100.00,SSW,198,0.0,2.2,90,0.00,,,-99.99,1.0,HOBO +U30 +Weather +,2013-01-12 11:30:00,
2013-01-12 04:35:00,9.4,7.3,-100.00,South,178,1.1,2.9,90,0.00,,,-99.99,1.0,HOBO +U30 +Weather +,2013-01-12 11:35:00,
2013-01-12 04:40:00,9.1,6.8,-100.00,SSE,159,1.8,3.4,90,0.00,,,-99.99,1.0,HOBO +U30 +Weather +,2013-01-12 11:40:00,
2013-01-12 04:45:00,8.7,6.5,-100.00,SSE,164,2.2,3.4,90,0.00,,,-99.99,1.0,HOBO +U30 +Weather +,2013-01-12 11:45:00,
2013-01-12 04:50:00,9.5,7.5,-100.00,SSE,168,1.1,2.9,91,0.00,,,-99.99,1.0,HOBO +U30 +Weather +,2013-01-12 11:50:00,
2013-01-12 04:55:00,9.3,7.2,-100.00,South,177,1.8,2.9,91,0.00,,,-99.99,1.0,HOBO +U30 +Weather +,2013-01-12 11:55:00,
2013-01-12 05:00:00,9.4,7.2,-100.00,South,183,0.7,2.2,90,0.00,,,-99.99,1.0,HOBO +U30 +Weather +,2013-01-12 12:00:00,
2013-01-12 05:05:00,10.2,8.1,-100.00,South,183,0.7,2.9,91,0.00,,,-99.99,1.0,HOBO +U30 +Weather +,2013-01-12 12:05:00,
2013-01-12 05:10:00,9.3,7.1,-100.00,South,183,1.1,2.2,90,0.00,,,-99.99,1.0,HOBO +U30 +Weather +,2013-01-12 12:10:00,
2013-01-12 05:15:00,8.9,6.6,-100.00,South,183,1.1,2.2,90,0.00,,,-99.99,1.0,HOBO +U30 +Weather +,2013-01-12 12:15:00,
2013-01-12 05:20:00,8.2,6.0,-100.00,South,178,1.8,3.4,90,0.00,,,-99.99,1.0,HOBO +U30 +Weather +,2013-01-12 12:20:00,
2013-01-12 05:25:00,7.8,5.6,-100.00,SSE,168,2.2,4.0,90,0.00,,,-99.99,1.0,HOBO +U30 +Weather +,2013-01-12 12:25:00,
2013-01-12 05:30:00,7.8,5.5,-100.00,South,170,1.8,2.9,90,0.00,,,-99.99,1.0,HOBO +U30 +Weather +,2013-01-12 12:30:00,
2013-01-12 05:35:00,7.9,5.7,-100.00,South,170,1.8,2.9,90,0.00,,,-99.99,1.0,HOBO +U30 +Weather +,2013-01-12 12:35:00,
2013-01-12 05:40:00,7.3,5.1,-100.00,South,170,3.4,5.6,90,0.00,,,-99.99,1.0,HOBO +U30 +Weather +,2013-01-12 12:40:00,
2013-01-12 05:45:00,7.3,5.1,-100.00,South,174,4.0,5.1,90,0.00,,,-99.99,1.0,HOBO +U30 +Weather +,2013-01-12 12:45:00,
2013-01-12 05:50:00,7.3,5.0,-100.00,South,185,2.9,4.5,90,0.00,,,-99.99,1.0,HOBO +U30 +Weather +,2013-01-12 12:50:00,
2013-01-12 05:55:00,7.2,5.0,-100.00,South,183,2.9,4.5,90,0.00,,,-99.99,1.0,HOBO +U30 +Weather +,2013-01-12 12:55:00,
2013-01-12 06:00:00,7.1,4.8,-100.00,South,181,2.2,3.4,90,0.00,,,-99.99,1.0,HOBO +U30 +Weather +,2013-01-12 13:00:00,
2013-01-12 06:05:00,7.2,5.0,-100.00,South,184,2.2,4.0,90,0.00,,,-99.99,1.0,HOBO +U30 +Weather +,2013-01-12 13:05:00,
2013-01-12 06:10:00,7.1,4.8,-100.00,South,190,2.2,3.4,90,0.00,,,-99.99,1.0,HOBO +U30 +Weather +,2013-01-12 13:10:00,
2013-01-12 06:15:00,7.2,5.0,-100.00,SSW,192,2.2,3.4,90,0.00,,,-99.99,1.0,HOBO +U30 +Weather +,2013-01-12 13:15:00,
2013-01-12 06:20:00,6.9,4.6,-100.00,SSW,194,2.2,3.4,90,0.00,,,-99.99,1.0,HOBO +U30 +Weather +,2013-01-12 13:20:00,
2013-01-12 06:25:00,6.6,4.3,-100.00,South,188,2.2,4.0,90,0.00,,,-99.99,1.0,HOBO +U30 +Weather +,2013-01-12 13:25:00,
2013-01-12 06:30:00,6.5,4.2,-100.00,South,190,2.2,3.4,90,0.00,,,-99.99,1.0,HOBO +U30 +Weather +,2013-01-12 13:30:00,
2013-01-12 06:35:00,6.0,3.7,-100.00,South,181,2.9,4.5,90,0.00,,,-99.99,1.0,HOBO +U30 +Weather +,2013-01-12 13:35:00,
2013-01-12 06:40:00,5.7,3.3,-100.00,South,181,2.2,4.0,90,0.00,,,-99.99,1.0,HOBO +U30 +Weather +,2013-01-12 13:40:00,
2013-01-12 06:45:00,5.7,3.4,-100.00,South,187,2.2,4.0,89,0.00,,,-99.99,1.0,HOBO +U30 +Weather +,2013-01-12 13:45:00,
2013-01-12 06:50:00,5.4,3.1,-100.00,South,181,2.2,4.0,89,0.00,,,-99.99,1.0,HOBO +U30 +Weather +,2013-01-12 13:50:00,
2013-01-12 06:55:00,5.0,2.7,-100.00,South,183,2.2,3.4,89,0.00,,,-99.99,1.0,HOBO +U30 +Weather +,2013-01-12 13:55:00,
2013-01-12 07:00:00,4.9,2.5,-100.00,South,183,2.2,4.0,89,0.00,,,-99.99,1.0,HOBO +U30 +Weather +,2013-01-12 14:00:00,
2013-01-12 07:05:00,5.2,2.8,-100.00,South,190,2.2,4.0,90,0.00,,,-99.99,1.0,HOBO +U30 +Weather +,2013-01-12 14:05:00,
2013-01-12 07:10:00,5.3,2.9,-100.00,South,190,1.8,3.4,89,0.00,,,-99.99,1.0,HOBO +U30 +Weather +,2013-01-12 14:10:00,
2013-01-12 07:15:00,5.2,2.8,-100.00,SSW,192,2.2,3.4,89,0.00,,,-99.99,1.0,HOBO +U30 +Weather +,2013-01-12 14:15:00,
2013-01-12 07:20:00,5.5,3.2,-100.00,SSW,198,2.9,3.4,90,0.00,,,-99.99,1.0,HOBO +U30 +Weather +,2013-01-12 14:20:00,
2013-01-12 07:25:00,5.4,2.9,-100.00,SSW,192,2.9,4.5,89,0.00,,,-99.99,1.0,HOBO +U30 +Weather +,2013-01-12 14:25:00,
2013-01-12 07:30:00,4.7,2.2,-100.00,SSW,198,4.0,5.1,89,0.00,,,-99.99,1.0,HOBO +U30 +Weather +,2013-01-12 14:30:00,
2013-01-12 07:35:00,4.7,2.3,-100.00,SSW,208,2.9,4.5,89,0.00,,,-99.99,1.0,HOBO +U30 +Weather +,2013-01-12 14:35:00,
2013-01-12 07:40:00,4.7,2.2,-100.00,SSW,206,2.2,5.6,89,0.00,,,-99.99,1.0,HOBO +U30 +Weather +,2013-01-12 14:40:00,
2013-01-12 07:45:00,4.4,1.9,-100.00,SSW,204,3.4,5.1,89,0.00,,,-99.99,2.0,HOBO +U30 +Weather +,2013-01-12 14:45:00,
2013-01-12 07:50:00,3.9,1.3,-100.00,SSW,202,4.0,5.1,89,0.00,,,-99.99,2.0,HOBO +U30 +Weather +,2013-01-12 14:50:00,
2013-01-12 07:55:00,3.7,1.2,-100.00,SSW,201,2.9,4.0,89,0.00,,,-99.99,3.0,HOBO +U30 +Weather +,2013-01-12 14:55:00,
2013-01-12 08:00:00,3.9,1.5,-100.00,SSW,202,2.9,4.5,89,0.00,,,-99.99,4.0,HOBO +U30 +Weather +,2013-01-12 15:00:00,
2013-01-12 08:05:00,3.4,0.9,-100.00,South,183,3.4,5.1,89,0.00,,,-99.99,6.0,HOBO +U30 +Weather +,2013-01-12 15:05:00,
2013-01-12 08:10:00,3.1,0.6,-100.00,South,184,4.0,5.1,88,0.00,,,-99.99,7.0,HOBO +U30 +Weather +,2013-01-12 15:10:00,
2013-01-12 08:15:00,3.5,1.0,-100.00,SSW,195,2.9,5.1,89,0.00,,,-99.99,9.0,HOBO +U30 +Weather +,2013-01-12 15:15:00,
2013-01-12 08:20:00,3.4,0.9,-100.00,SSW,197,3.4,5.1,89,0.00,,,-99.99,14.0,HOBO +U30 +Weather +,2013-01-12 15:20:00,
2013-01-12 08:25:00,3.4,0.8,-100.00,SSW,198,3.4,4.5,88,0.00,,,-99.99,19.0,HOBO +U30 +Weather +,2013-01-12 15:25:00,
2013-01-12 08:30:00,3.4,0.8,-100.00,SSW,198,3.4,4.5,88,0.00,,,-99.99,24.0,HOBO +U30 +Weather +,2013-01-12 15:30:00,
2013-01-12 08:35:00,3.9,1.4,-100.00,SSW,208,2.9,5.1,89,0.00,,,-99.99,34.0,HOBO +U30 +Weather +,2013-01-12 15:35:00,
2013-01-12 08:40:00,4.9,2.4,-100.00,SSW,213,1.8,5.6,89,0.00,,,-99.99,37.0,HOBO +U30 +Weather +,2013-01-12 15:40:00,
2013-01-12 08:45:00,4.3,1.7,-100.00,SSW,202,4.0,5.1,89,0.00,,,-99.99,36.0,HOBO +U30 +Weather +,2013-01-12 15:45:00,
2013-01-12 08:50:00,3.9,1.3,-100.00,SSW,199,4.0,6.3,88,0.00,,,-99.99,41.0,HOBO +U30 +Weather +,2013-01-12 15:50:00,
2013-01-12 08:55:00,4.0,1.5,-100.00,SSW,197,3.4,5.1,89,0.00,,,-99.99,48.0,HOBO +U30 +Weather +,2013-01-12 15:55:00,
2013-01-12 09:00:00,3.8,1.2,-100.00,South,190,3.4,5.1,88,0.00,,,-99.99,47.0,HOBO +U30 +Weather +,2013-01-12 16:00:00,
2013-01-12 09:05:00,4.0,1.3,-100.00,SSW,192,2.9,4.0,88,0.00,,,-99.99,56.0,HOBO +U30 +Weather +,2013-01-12 16:05:00,
2013-01-12 09:10:00,4.0,1.4,-100.00,South,187,2.9,4.5,88,0.00,,,-99.99,73.0,HOBO +U30 +Weather +,2013-01-12 16:10:00,
2013-01-12 09:15:00,3.8,1.1,-100.00,South,174,2.2,3.4,88,0.00,,,-99.99,73.0,HOBO +U30 +Weather +,2013-01-12 16:15:00,
2013-01-12 09:20:00,4.1,1.5,-100.00,SSE,167,1.8,2.9,88,0.00,,,-99.99,78.0,HOBO +U30 +Weather +,2013-01-12 16:20:00,
2013-01-12 09:25:00,4.5,2.0,-100.00,South,173,2.2,3.4,89,0.00,,,-99.99,78.0,HOBO +U30 +Weather +,2013-01-12 16:25:00,
2013-01-12 09:30:00,4.8,2.2,-100.00,South,173,1.8,3.4,88,0.00,,,-99.99,88.0,HOBO +U30 +Weather +,2013-01-12 16:30:00,
2013-01-12 09:35:00,4.9,2.2,-100.00,South,178,2.9,4.5,88,0.00,,,-99.99,94.0,HOBO +U30 +Weather +,2013-01-12 16:35:00,
2013-01-12 09:40:00,5.2,2.5,-100.00,South,183,2.9,4.5,88,0.00,,,-99.99,98.0,HOBO +U30 +Weather +,2013-01-12 16:40:00,
2013-01-12 09:45:00,5.4,2.7,-100.00,SSW,194,3.4,6.3,88,0.00,,,-99.99,104.0,HOBO +U30 +Weather +,2013-01-12 16:45:00,
2013-01-12 09:50:00,5.6,2.9,-100.00,SSW,199,4.0,5.6,88,0.00,,,-99.99,109.0,HOBO +U30 +Weather +,2013-01-12 16:50:00,
2013-01-12 09:55:00,5.8,3.1,-100.00,SSW,192,3.4,5.1,88,0.00,,,-99.99,97.0,HOBO +U30 +Weather +,2013-01-12 16:55:00,
2013-01-12 10:00:00,6.7,4.1,-100.00,SSW,197,1.8,5.1,88,0.00,,,-99.99,97.0,HOBO +U30 +Weather +,2013-01-12 17:00:00,
2013-01-12 10:05:00,6.4,3.7,-100.00,SSW,198,4.0,6.3,88,0.00,,,-99.99,117.0,HOBO +U30 +Weather +,2013-01-12 17:05:00,
2013-01-12 10:10:00,5.9,3.1,-100.00,SSW,197,4.0,6.3,88,0.00,,,-99.99,124.0,HOBO +U30 +Weather +,2013-01-12 17:10:00,
2013-01-12 10:15:00,6.4,3.5,-100.00,SSW,201,2.9,5.6,88,0.00,,,-99.99,141.0,HOBO +U30 +Weather +,2013-01-12 17:15:00,
2013-01-12 10:20:00,6.4,3.7,-100.00,SSW,198,4.0,6.3,88,0.00,,,-99.99,154.0,HOBO +U30 +Weather +,2013-01-12 17:20:00,
2013-01-12 10:25:00,6.7,3.9,-100.00,SSW,198,3.4,5.6,88,0.00,,,-99.99,167.0,HOBO +U30 +Weather +,2013-01-12 17:25:00,
2013-01-12 10:30:00,6.6,3.7,-100.00,SSW,194,4.0,5.6,87,0.00,,,-99.99,184.0,HOBO +U30 +Weather +,2013-01-12 17:30:00,
2013-01-12 10:35:00,6.9,4.0,-100.00,SSW,195,4.5,6.3,87,0.00,,,-99.99,191.0,HOBO +U30 +Weather +,2013-01-12 17:35:00,
2013-01-12 10:40:00,7.1,4.2,-100.00,South,188,4.0,5.6,87,0.00,,,-99.99,194.0,HOBO +U30 +Weather +,2013-01-12 17:40:00,
2013-01-12 10:45:00,8.1,5.1,-100.00,South,181,3.4,5.6,87,0.00,,,-99.99,209.0,HOBO +U30 +Weather +,2013-01-12 17:45:00,
2013-01-12 10:50:00,8.4,5.4,-100.00,SSW,198,3.4,6.7,87,0.00,,,-99.99,213.0,HOBO +U30 +Weather +,2013-01-12 17:50:00,
2013-01-12 10:55:00,8.2,5.0,-100.00,South,188,4.5,7.8,86,0.00,,,-99.99,227.0,HOBO +U30 +Weather +,2013-01-12 17:55:00,
2013-01-12 11:00:00,8.5,5.2,-100.00,SSW,204,4.5,7.8,86,0.00,,,-99.99,241.0,HOBO +U30 +Weather +,2013-01-12 18:00:00,
2013-01-12 11:05:00,8.4,4.9,-100.00,SSW,201,4.5,6.7,85,0.00,,,-99.99,261.0,HOBO +U30 +Weather +,2013-01-12 18:05:00,
2013-01-12 11:10:00,8.8,5.1,-100.00,SSW,195,5.1,8.5,84,0.00,,,-99.99,281.0,HOBO +U30 +Weather +,2013-01-12 18:10:00,
2013-01-12 11:15:00,8.4,4.6,-100.00,SSW,192,6.7,8.9,84,0.00,,,-99.99,289.0,HOBO +U30 +Weather +,2013-01-12 18:15:00,
2013-01-12 11:20:00,9.4,5.7,-100.00,SSW,194,5.6,7.8,84,0.00,,,-99.99,307.0,HOBO +U30 +Weather +,2013-01-12 18:20:00,
2013-01-12 11:25:00,9.4,5.3,-100.00,SSW,204,5.6,8.5,83,0.00,,,-99.99,317.0,HOBO +U30 +Weather +,2013-01-12 18:25:00,
2013-01-12 11:30:00,10.1,6.0,-100.00,SSW,202,6.3,9.6,83,0.00,,,-99.99,337.0,HOBO +U30 +Weather +,2013-01-12 18:30:00,
2013-01-12 11:35:00,10.7,6.3,-100.00,SSW,199,5.1,7.8,82,0.00,,,-99.99,341.0,HOBO +U30 +Weather +,2013-01-12 18:35:00,
2013-01-12 11:40:00,10.5,5.8,-100.00,SSW,202,5.6,9.6,81,0.00,,,-99.99,358.0,HOBO +U30 +Weather +,2013-01-12 18:40:00,
2013-01-12 11:45:00,10.6,5.9,-100.00,SSW,198,6.3,8.5,81,0.00,,,-99.99,361.0,HOBO +U30 +Weather +,2013-01-12 18:45:00,
2013-01-12 11:50:00,11.4,6.5,-100.00,SSW,199,5.1,8.5,80,0.00,,,-99.99,352.0,HOBO +U30 +Weather +,2013-01-12 18:50:00,
2013-01-12 11:55:00,11.8,6.7,-100.00,SSW,204,4.5,7.4,79,0.00,,,-99.99,379.0,HOBO +U30 +Weather +,2013-01-12 18:55:00,
2013-01-12 12:00:00,11.6,6.2,-100.00,SSW,199,5.1,6.7,78,0.00,,,-99.99,339.0,HOBO +U30 +Weather +,2013-01-12 19:00:00,
2013-01-12 12:05:00,12.3,6.9,-100.00,SSW,194,4.5,7.4,78,0.00,,,-99.99,378.0,HOBO +U30 +Weather +,2013-01-12 19:05:00,
2013-01-12 12:10:00,12.7,7.2,-100.00,SSW,198,4.5,6.3,78,0.00,,,-99.99,297.0,HOBO +U30 +Weather +,2013-01-12 19:10:00,
2013-01-12 12:15:00,12.8,6.9,-100.00,SSW,195,4.5,7.4,76,0.00,,,-99.99,362.0,HOBO +U30 +Weather +,2013-01-12 19:15:00,
2013-01-12 12:20:00,12.7,6.7,-100.00,SSW,192,4.5,6.7,76,0.00,,,-99.99,344.0,HOBO +U30 +Weather +,2013-01-12 19:20:00,
2013-01-12 12:25:00,13.5,7.3,-100.00,SSW,194,5.1,7.4,75,0.00,,,-99.99,381.0,HOBO +U30 +Weather +,2013-01-12 19:25:00,
2013-01-12 12:30:00,14.3,7.8,-100.00,SSW,195,5.6,7.8,74,0.00,,,-99.99,444.0,HOBO +U30 +Weather +,2013-01-12 19:30:00,
2013-01-12 12:35:00,14.2,6.6,-100.00,SSW,192,4.5,8.9,71,0.00,,,-99.99,469.0,HOBO +U30 +Weather +,2013-01-12 19:35:00,
2013-01-12 12:40:00,14.8,6.8,-100.00,SSW,192,4.5,7.4,70,0.00,,,-99.99,459.0,HOBO +U30 +Weather +,2013-01-12 19:40:00,
2013-01-12 12:45:00,14.6,6.8,-100.00,SSW,192,5.6,7.8,70,0.00,,,-99.99,427.0,HOBO +U30 +Weather +,2013-01-12 19:45:00,
2013-01-12 12:50:00,14.2,6.3,-100.00,SSW,194,5.1,7.4,70,0.00,,,-99.99,329.0,HOBO +U30 +Weather +,2013-01-12 19:50:00,
2013-01-12 12:55:00,15.3,7.5,-100.00,South,191,4.5,6.7,70,0.00,,,-99.99,291.0,HOBO +U30 +Weather +,2013-01-12 19:55:00,
2013-01-12 13:00:00,15.2,7.2,-100.00,SSW,199,4.5,7.8,70,0.00,,,-99.99,283.0,HOBO +U30 +Weather +,2013-01-12 20:00:00,
2013-01-12 13:05:00,15.1,7.0,-100.00,South,187,5.6,8.9,70,0.00,,,-99.99,283.0,HOBO +U30 +Weather +,2013-01-12 20:05:00,
2013-01-12 13:10:00,15.1,6.9,-100.00,SSW,198,6.7,11.2,69,0.00,,,-99.99,296.0,HOBO +U30 +Weather +,2013-01-12 20:10:00,
2013-01-12 13:15:00,15.7,7.6,-100.00,SSW,199,6.7,11.2,69,0.00,,,-99.99,324.0,HOBO +U30 +Weather +,2013-01-12 20:15:00,
2013-01-12 13:20:00,15.9,7.7,-100.00,SSW,205,7.8,12.3,69,0.00,,,-99.99,386.0,HOBO +U30 +Weather +,2013-01-12 20:20:00,
2013-01-12 13:25:00,16.1,7.5,-100.00,SSW,212,9.6,19.2,68,0.00,,,-99.99,347.0,HOBO +U30 +Weather +,2013-01-12 20:25:00,
2013-01-12 13:30:00,16.2,7.2,-100.00,SW,218,11.2,17.0,67,0.00,,,-99.99,343.0,HOBO +U30 +Weather +,2013-01-12 20:30:00,
2013-01-12 13:35:00,17.4,8.5,-100.00,SW,219,8.5,17.0,67,0.00,,,-99.99,362.0,HOBO +U30 +Weather +,2013-01-12 20:35:00,
2013-01-12 13:40:00,17.1,7.9,-100.00,SW,222,7.4,13.4,66,0.00,,,-99.99,349.0,HOBO +U30 +Weather +,2013-01-12 20:40:00,
2013-01-12 13:45:00,16.1,6.8,-100.00,SW,215,13.0,18.1,66,0.00,,,-99.99,324.0,HOBO +U30 +Weather +,2013-01-12 20:45:00,
2013-01-12 13:50:00,16.1,6.4,-100.00,SW,216,11.9,15.9,65,0.00,,,-99.99,298.0,HOBO +U30 +Weather +,2013-01-12 20:50:00,
2013-01-12 13:55:00,16.3,6.9,-100.00,SW,223,9.6,15.2,65,0.00,,,-99.99,278.0,HOBO +U30 +Weather +,2013-01-12 20:55:00,
2013-01-12 14:00:00,16.2,6.6,-100.00,SW,220,12.3,17.0,65,0.00,,,-99.99,283.0,HOBO +U30 +Weather +,2013-01-12 21:00:00,
2013-01-12 14:05:00,16.8,7.3,-100.00,SW,227,9.6,16.3,65,0.00,,,-99.99,293.0,HOBO +U30 +Weather +,2013-01-12 21:05:00,
2013-01-12 14:10:00,17.2,7.7,-100.00,SW,219,8.5,13.4,65,0.00,,,-99.99,281.0,HOBO +U30 +Weather +,2013-01-12 21:10:00,
2013-01-12 14:15:00,16.5,6.6,-100.00,SW,219,10.1,16.3,64,0.00,,,-99.99,267.0,HOBO +U30 +Weather +,2013-01-12 21:15:00,
2013-01-12 14:20:00,16.5,6.8,-100.00,SW,216,11.2,15.9,64,0.00,,,-99.99,263.0,HOBO +U30 +Weather +,2013-01-12 21:20:00,
2013-01-12 14:25:00,16.3,6.7,-100.00,SSW,213,10.1,15.9,65,0.00,,,-99.99,184.0,HOBO +U30 +Weather +,2013-01-12 21:25:00,
2013-01-12 14:30:00,16.4,7.0,-100.00,SSW,213,9.6,14.1,66,0.00,,,-99.99,173.0,HOBO +U30 +Weather +,2013-01-12 21:30:00,
2013-01-12 14:35:00,16.1,6.5,-100.00,SW,219,9.6,17.0,65,0.00,,,-99.99,177.0,HOBO +U30 +Weather +,2013-01-12 21:35:00,
2013-01-12 14:40:00,16.4,6.8,-100.00,SW,216,9.6,15.2,65,0.00,,,-99.99,189.0,HOBO +U30 +Weather +,2013-01-12 21:40:00,
2013-01-12 14:45:00,16.3,6.5,-100.00,SW,223,8.5,14.1,64,0.00,,,-99.99,179.0,HOBO +U30 +Weather +,2013-01-12 21:45:00,
2013-01-12 14:50:00,16.6,6.9,-100.00,SW,225,7.4,11.9,65,0.00,,,-99.99,198.0,HOBO +U30 +Weather +,2013-01-12 21:50:00,
2013-01-12 14:55:00,16.1,6.2,-100.00,WSW,240,8.9,14.1,64,0.00,,,-99.99,184.0,HOBO +U30 +Weather +,2013-01-12 21:55:00,
2013-01-12 15:00:00,16.1,6.4,-100.00,WSW,243,8.9,14.1,65,0.00,,,-99.99,169.0,HOBO +U30 +Weather +,2013-01-12 22:00:00,
2013-01-12 15:05:00,16.3,6.7,-100.00,SW,219,6.7,14.5,65,0.00,,,-99.99,163.0,HOBO +U30 +Weather +,2013-01-12 22:05:00,
2013-01-12 15:10:00,16.8,7.0,-100.00,SW,227,5.6,10.7,64,0.00,,,-99.99,151.0,HOBO +U30 +Weather +,2013-01-12 22:10:00,
2013-01-12 15:15:00,16.5,6.8,-100.00,SW,236,4.5,8.5,65,0.00,,,-99.99,137.0,HOBO +U30 +Weather +,2013-01-12 22:15:00,
2013-01-12 15:20:00,16.2,6.6,-100.00,SW,222,5.6,11.2,65,0.00,,,-99.99,124.0,HOBO +U30 +Weather +,2013-01-12 22:20:00,
2013-01-12 15:25:00,16.4,7.1,-100.00,SW,227,5.1,9.6,66,0.00,,,-99.99,117.0,HOBO +U30 +Weather +,2013-01-12 22:25:00,
2013-01-12 15:30:00,16.1,6.5,-100.00,SW,222,4.0,8.9,65,0.00,,,-99.99,108.0,HOBO +U30 +Weather +,2013-01-12 22:30:00,
2013-01-12 15:35:00,15.8,6.5,-100.00,SW,220,6.3,11.9,66,0.00,,,-99.99,99.0,HOBO +U30 +Weather +,2013-01-12 22:35:00,
2013-01-12 15:40:00,15.9,6.6,-100.00,SW,218,5.1,10.7,66,0.00,,,-99.99,91.0,HOBO +U30 +Weather +,2013-01-12 22:40:00,
2013-01-12 15:45:00,16.3,7.5,-100.00,SSW,208,4.5,10.1,67,0.00,,,-99.99,82.0,HOBO +U30 +Weather +,2013-01-12 22:45:00,
2013-01-12 15:50:00,15.7,6.5,-100.00,SW,218,4.5,9.6,66,0.00,,,-99.99,76.0,HOBO +U30 +Weather +,2013-01-12 22:50:00,
2013-01-12 15:55:00,15.3,6.1,-100.00,SW,230,6.7,10.7,66,0.00,,,-99.99,69.0,HOBO +U30 +Weather +,2013-01-12 22:55:00,
2013-01-12 16:00:00,15.3,6.1,-100.00,SW,229,6.7,12.3,66,0.00,,,-99.99,63.0,HOBO +U30 +Weather +,2013-01-12 23:00:00,
2013-01-12 16:05:00,15.3,6.3,-100.00,SW,233,7.4,11.9,66,0.00,,,-99.99,57.0,HOBO +U30 +Weather +,2013-01-12 23:05:00,
2013-01-12 16:10:00,15.2,6.3,-100.00,SW,227,6.3,11.2,67,0.00,,,-99.99,51.0,HOBO +U30 +Weather +,2013-01-12 23:10:00,
2013-01-12 16:15:00,15.0,6.1,-100.00,WSW,244,6.3,10.1,67,0.00,,,-99.99,43.0,HOBO +U30 +Weather +,2013-01-12 23:15:00,
2013-01-12 16:20:00,14.6,5.8,-100.00,WSW,247,7.4,14.1,67,0.00,,,-99.99,34.0,HOBO +U30 +Weather +,2013-01-12 23:20:00,
2013-01-12 16:25:00,14.7,6.1,-100.00,WSW,248,6.7,10.7,68,0.00,,,-99.99,27.0,HOBO +U30 +Weather +,2013-01-12 23:25:00,
2013-01-12 16:30:00,14.6,6.0,-100.00,WSW,244,7.4,10.1,68,0.00,,,-99.99,19.0,HOBO +U30 +Weather +,2013-01-12 23:30:00,
2013-01-12 16:35:00,14.4,5.9,-100.00,WSW,250,8.5,12.3,68,0.00,,,-99.99,13.0,HOBO +U30 +Weather +,2013-01-12 23:35:00,
2013-01-12 16:40:00,14.5,6.1,-100.00,WSW,243,7.4,12.3,68,0.00,,,-99.99,7.0,HOBO +U30 +Weather +,2013-01-12 23:40:00,
2013-01-12 16:45:00,14.3,6.0,-100.00,WSW,246,6.7,10.1,69,0.00,,,-99.99,4.0,HOBO +U30 +Weather +,2013-01-12 23:45:00,
2013-01-12 16:50:00,14.2,5.9,-100.00,WSW,240,8.9,13.0,69,0.00,,,-99.99,2.0,HOBO +U30 +Weather +,2013-01-12 23:50:00,
2013-01-12 16:55:00,14.3,6.2,-100.00,WSW,241,7.4,11.9,69,0.00,,,-99.99,2.0,HOBO +U30 +Weather +,2013-01-12 23:55:00,
2013-01-12 17:00:00,14.2,6.3,-100.00,WSW,239,6.3,9.6,70,0.00,,,-99.99,1.0,HOBO +U30 +Weather +,2013-01-13 00:00:00,
2013-01-12 17:05:00,14.1,6.3,-100.00,WSW,243,6.7,10.1,70,0.00,,,-99.99,1.0,HOBO +U30 +Weather +,2013-01-13 00:05:00,
2013-01-12 17:10:00,14.0,6.4,-100.00,WSW,244,7.8,10.1,71,0.00,,,-99.99,1.0,HOBO +U30 +Weather +,2013-01-13 00:10:00,
2013-01-12 17:15:00,14.1,6.6,-100.00,WSW,247,5.1,7.8,71,0.00,,,-99.99,1.0,HOBO +U30 +Weather +,2013-01-13 00:15:00,
2013-01-12 17:20:00,14.1,6.8,-100.00,WSW,241,6.3,11.9,72,0.00,,,-99.99,1.0,HOBO +U30 +Weather +,2013-01-13 00:20:00,
2013-01-12 17:25:00,14.0,6.7,-100.00,WSW,241,6.3,10.7,72,0.00,,,-99.99,1.0,HOBO +U30 +Weather +,2013-01-13 00:25:00,
2013-01-12 17:30:00,14.0,6.9,-100.00,WSW,248,7.4,11.2,72,0.00,,,-99.99,1.0,HOBO +U30 +Weather +,2013-01-13 00:30:00,
2013-01-12 17:35:00,13.8,6.7,-100.00,WSW,250,6.3,10.7,72,0.00,,,-99.99,1.0,HOBO +U30 +Weather +,2013-01-13 00:35:00,
2013-01-12 17:40:00,13.8,7.0,-100.00,WSW,250,7.4,10.1,74,0.00,,,-99.99,1.0,HOBO +U30 +Weather +,2013-01-13 00:40:00,
2013-01-12 17:45:00,13.8,7.3,-100.00,WSW,250,5.6,9.6,74,0.00,,,-99.99,1.0,HOBO +U30 +Weather +,2013-01-13 00:45:00,
2013-01-12 17:50:00,13.6,7.6,-100.00,WSW,244,6.7,10.7,76,0.00,,,-99.99,1.0,HOBO +U30 +Weather +,2013-01-13 00:50:00,
2013-01-12 17:55:00,13.5,7.7,-100.00,WSW,251,6.7,11.2,77,0.00,,,-99.99,1.0,HOBO +U30 +Weather +,2013-01-13 00:55:00,
2013-01-12 18:00:00,13.5,8.1,-100.00,WSW,246,5.6,8.9,78,0.00,,,-99.99,1.0,HOBO +U30 +Weather +,2013-01-13 01:00:00,
2013-01-12 18:05:00,13.3,8.3,-100.00,WSW,244,7.8,12.3,80,0.00,,,-99.99,1.0,HOBO +U30 +Weather +,2013-01-13 01:05:00,
2013-01-12 18:10:00,13.5,8.7,-100.00,WSW,240,5.6,9.6,81,0.00,,,-99.99,1.0,HOBO +U30 +Weather +,2013-01-13 01:10:00,
2013-01-12 18:15:00,13.3,8.8,-100.00,WSW,241,6.7,11.2,82,0.00,,,-99.99,1.0,HOBO +U30 +Weather +,2013-01-13 01:15:00,
2013-01-12 18:20:00,13.3,9.2,-100.00,WSW,246,6.3,9.6,83,0.00,,,-99.99,1.0,HOBO +U30 +Weather +,2013-01-13 01:20:00,
2013-01-12 18:25:00,13.1,9.1,-100.00,WSW,246,7.4,11.9,83,0.00,,,-99.99,1.0,HOBO +U30 +Weather +,2013-01-13 01:25:00,
2013-01-12 18:30:00,13.2,9.3,-100.00,WSW,248,6.7,11.2,84,0.00,,,-99.99,1.0,HOBO +U30 +Weather +,2013-01-13 01:30:00,
2013-01-12 18:35:00,13.2,9.2,-100.00,WSW,243,6.3,11.2,83,0.00,,,-99.99,1.0,HOBO +U30 +Weather +,2013-01-13 01:35:00,
2013-01-12 18:40:00,13.3,9.1,-100.00,WSW,246,6.7,11.2,83,0.00,,,-99.99,1.0,HOBO +U30 +Weather +,2013-01-13 01:40:00,
2013-01-12 18:45:00,13.3,8.9,-100.00,WSW,243,5.1,8.5,82,0.00,,,-99.99,1.0,HOBO +U30 +Weather +,2013-01-13 01:45:00,
2013-01-12 18:50:00,13.3,8.7,-100.00,WSW,244,6.7,10.1,81,0.00,,,-99.99,1.0,HOBO +U30 +Weather +,2013-01-13 01:50:00,
2013-01-12 18:55:00,13.2,8.5,-100.00,WSW,250,6.3,8.9,81,0.00,,,-99.99,1.0,HOBO +U30 +Weather +,2013-01-13 01:55:00,
2013-01-12 19:00:00,13.3,8.5,-100.00,WSW,248,4.5,8.9,81,0.00,,,-99.99,1.0,HOBO +U30 +Weather +,2013-01-13 02:00:00,
2013-01-12 19:05:00,13.0,8.3,-100.00,WSW,256,4.5,8.5,81,0.00,,,-99.99,1.0,HOBO +U30 +Weather +,2013-01-13 02:05:00,
2013-01-12 19:10:00,13.0,8.4,-100.00,WSW,243,5.1,8.5,81,0.00,,,-99.99,1.0,HOBO +U30 +Weather +,2013-01-13 02:10:00,
2013-01-12 19:15:00,12.8,8.4,-100.00,WSW,251,4.5,8.5,82,0.00,,,-99.99,1.0,HOBO +U30 +Weather +,2013-01-13 02:15:00,
2013-01-12 19:20:00,12.8,8.5,-100.00,WSW,257,4.0,6.7,82,0.00,,,-99.99,1.0,HOBO +U30 +Weather +,2013-01-13 02:20:00,
2013-01-12 19:25:00,12.8,8.8,-100.00,WSW,246,3.4,7.8,83,0.00,,,-99.99,1.0,HOBO +U30 +Weather +,2013-01-13 02:25:00,
2013-01-12 19:30:00,12.6,8.7,-100.00,WSW,251,2.2,5.6,84,0.00,,,-99.99,1.0,HOBO +U30 +Weather +,2013-01-13 02:30:00,
2013-01-12 19:35:00,12.6,9.0,-100.00,West,260,3.4,6.3,85,0.00,,,-99.99,1.0,HOBO +U30 +Weather +,2013-01-13 02:35:00,
2013-01-12 19:40:00,12.7,9.2,-100.00,WSW,244,4.5,7.8,85,0.00,,,-99.99,1.0,HOBO +U30 +Weather +,2013-01-13 02:40:00,
2013-01-12 19:45:00,12.6,9.1,-100.00,WSW,250,4.0,6.7,85,0.00,,,-99.99,1.0,HOBO +U30 +Weather +,2013-01-13 02:45:00,
2013-01-12 19:50:00,12.6,9.1,-100.00,WSW,251,5.1,8.9,85,0.00,,,-99.99,1.0,HOBO +U30 +Weather +,2013-01-13 02:50:00,
2013-01-12 19:55:00,12.5,9.1,-100.00,WSW,257,4.5,6.7,85,0.00,,,-99.99,1.0,HOBO +U30 +Weather +,2013-01-13 02:55:00,
2013-01-12 20:00:00,12.6,9.2,-100.00,WSW,248,5.1,8.5,86,0.00,,,-99.99,1.0,HOBO +U30 +Weather +,2013-01-13 03:00:00,
2013-01-12 20:05:00,12.5,9.1,-100.00,WSW,244,5.1,8.5,86,0.00,,,-99.99,1.0,HOBO +U30 +Weather +,2013-01-13 03:05:00,
2013-01-12 20:10:00,12.5,9.0,-100.00,WSW,239,5.6,8.9,85,0.00,,,-99.99,1.0,HOBO +U30 +Weather +,2013-01-13 03:10:00,
2013-01-12 20:15:00,12.5,9.1,-100.00,WSW,240,4.5,8.9,86,0.00,,,-99.99,1.0,HOBO +U30 +Weather +,2013-01-13 03:15:00,
2013-01-12 20:20:00,12.3,8.8,-100.00,WSW,247,7.4,10.1,86,0.00,,,-99.99,1.0,HOBO +U30 +Weather +,2013-01-13 03:20:00,
2013-01-12 20:25:00,12.2,8.8,-100.00,WSW,248,5.6,8.9,86,0.00,,,-99.99,1.0,HOBO +U30 +Weather +,2013-01-13 03:25:00,
2013-01-12 20:30:00,12.1,8.7,-100.00,WSW,248,5.6,8.5,85,0.00,,,-99.99,1.0,HOBO +U30 +Weather +,2013-01-13 03:30:00,
2013-01-12 20:35:00,12.1,8.5,-100.00,WSW,250,6.7,10.1,85,0.00,,,-99.99,1.0,HOBO +U30 +Weather +,2013-01-13 03:35:00,
2013-01-12 20:40:00,11.9,8.3,-100.00,WSW,243,5.6,8.9,85,0.00,,,-99.99,1.0,HOBO +U30 +Weather +,2013-01-13 03:40:00,
2013-01-12 20:45:00,11.9,8.3,-100.00,WSW,244,5.1,9.6,85,0.00,,,-99.99,1.0,HOBO +U30 +Weather +,2013-01-13 03:45:00,
2013-01-12 20:50:00,11.7,8.0,-100.00,WSW,250,6.3,10.1,85,0.00,,,-99.99,1.0,HOBO +U30 +Weather +,2013-01-13 03:50:00,
2013-01-12 20:55:00,11.5,7.9,-100.00,WSW,239,6.3,8.9,85,0.00,,,-99.99,1.0,HOBO +U30 +Weather +,2013-01-13 03:55:00,
2013-01-12 21:00:00,11.4,7.8,-100.00,WSW,247,6.7,10.1,85,0.00,,,-99.99,1.0,HOBO +U30 +Weather +,2013-01-13 04:00:00,
2013-01-12 21:05:00,11.2,7.6,-100.00,WSW,246,5.1,7.8,85,0.00,,,-99.99,1.0,HOBO +U30 +Weather +,2013-01-13 04:05:00,
2013-01-12 21:10:00,11.2,7.6,-100.00,WSW,241,5.1,8.5,85,0.00,,,-99.99,1.0,HOBO +U30 +Weather +,2013-01-13 04:10:00,
2013-01-12 21:15:00,11.0,7.4,-100.00,WSW,244,4.5,7.8,85,0.00,,,-99.99,1.0,HOBO +U30 +Weather +,2013-01-13 04:15:00,
2013-01-12 21:20:00,10.8,7.3,-100.00,WSW,241,4.5,7.8,85,0.00,,,-99.99,1.0,HOBO +U30 +Weather +,2013-01-13 04:20:00,
2013-01-12 21:25:00,10.6,7.0,-100.00,WSW,258,3.4,6.3,85,0.00,,,-99.99,1.0,HOBO +U30 +Weather +,2013-01-13 04:25:00,
2013-01-12 21:30:00,10.5,7.0,-100.00,WSW,251,4.0,7.4,85,0.00,,,-99.99,1.0,HOBO +U30 +Weather +,2013-01-13 04:30:00,
2013-01-12 21:35:00,10.2,6.6,-100.00,WSW,258,5.1,9.6,85,0.00,,,-99.99,1.0,HOBO +U30 +Weather +,2013-01-13 04:35:00,
2013-01-12 21:40:00,10.0,6.5,-100.00,WSW,258,5.6,10.7,85,0.00,,,-99.99,1.0,HOBO +U30 +Weather +,2013-01-13 04:40:00,
2013-01-12 21:45:00,10.1,6.5,-100.00,WSW,248,6.7,11.2,85,0.00,,,-99.99,1.0,HOBO +U30 +Weather +,2013-01-13 04:45:00,
2013-01-12 21:50:00,9.9,6.3,-100.00,WSW,250,6.3,9.6,85,0.00,,,-99.99,1.0,HOBO +U30 +Weather +,2013-01-13 04:50:00,
2013-01-12 21:55:00,9.9,6.3,-100.00,West,260,5.6,8.5,85,0.00,,,-99.99,1.0,HOBO +U30 +Weather +,2013-01-13 04:55:00,
2013-01-12 22:00:00,9.9,6.3,-100.00,WSW,256,4.5,9.6,84,0.00,,,-99.99,1.0,HOBO +U30 +Weather +,2013-01-13 05:00:00,
2013-01-12 22:05:00,9.8,6.1,-100.00,West,260,2.9,7.4,84,0.00,,,-99.99,1.0,HOBO +U30 +Weather +,2013-01-13 05:05:00,
2013-01-12 22:10:00,9.7,6.0,-100.00,WSW,257,3.4,8.5,84,0.00,,,-99.99,1.0,HOBO +U30 +Weather +,2013-01-13 05:10:00,
2013-01-12 22:15:00,9.8,6.1,-100.00,West,265,2.9,7.4,84,0.00,,,-99.99,1.0,HOBO +U30 +Weather +,2013-01-13 05:15:00,
2013-01-12 22:20:00,9.3,5.6,-100.00,West,268,3.4,6.7,84,0.00,,,-99.99,1.0,HOBO +U30 +Weather +,2013-01-13 05:20:00,
2013-01-12 22:25:00,9.2,5.6,-100.00,West,263,5.1,10.1,84,0.00,,,-99.99,1.0,HOBO +U30 +Weather +,2013-01-13 05:25:00,
2013-01-12 22:30:00,9.2,5.6,-100.00,West,263,5.6,9.6,84,0.00,,,-99.99,1.0,HOBO +U30 +Weather +,2013-01-13 05:30:00,
2013-01-12 22:35:00,9.4,5.7,-100.00,West,261,3.4,8.9,84,0.00,,,-99.99,1.0,HOBO +U30 +Weather +,2013-01-13 05:35:00,
2013-01-12 22:40:00,9.2,5.4,-100.00,West,263,5.6,10.1,84,0.00,,,-99.99,1.0,HOBO +U30 +Weather +,2013-01-13 05:40:00,
2013-01-12 22:45:00,9.2,5.4,-100.00,West,260,6.3,10.1,84,0.00,,,-99.99,1.0,HOBO +U30 +Weather +,2013-01-13 05:45:00,
2013-01-12 22:50:00,9.3,5.4,-100.00,WSW,251,6.3,10.1,84,0.00,,,-99.99,1.0,HOBO +U30 +Weather +,2013-01-13 05:50:00,
2013-01-12 22:55:00,9.5,5.6,-100.00,WSW,248,4.5,7.8,83,0.00,,,-99.99,1.0,HOBO +U30 +Weather +,2013-01-13 05:55:00,
2013-01-12 23:00:00,9.4,5.4,-100.00,WSW,241,7.4,12.3,83,0.00,,,-99.99,1.0,HOBO +U30 +Weather +,2013-01-13 06:00:00,
2013-01-12 23:05:00,9.4,5.3,-100.00,SW,232,7.8,11.9,83,0.00,,,-99.99,1.0,HOBO +U30 +Weather +,2013-01-13 06:05:00,
2013-01-12 23:10:00,9.3,5.1,-100.00,WSW,237,8.5,11.2,82,0.00,,,-99.99,1.0,HOBO +U30 +Weather +,2013-01-13 06:10:00,
2013-01-12 23:15:00,9.3,5.1,-100.00,WSW,247,6.3,11.2,82,0.00,,,-99.99,1.0,HOBO +U30 +Weather +,2013-01-13 06:15:00,
2013-01-12 23:20:00,9.2,5.0,-100.00,WSW,248,5.1,8.5,82,0.00,,,-99.99,1.0,HOBO +U30 +Weather +,2013-01-13 06:20:00,
2013-01-12 23:25:00,9.2,5.0,-100.00,WSW,247,5.1,9.6,82,0.00,,,-99.99,1.0,HOBO +U30 +Weather +,2013-01-13 06:25:00,
2013-01-12 23:30:00,9.1,4.9,-100.00,WSW,251,5.6,9.6,82,0.00,,,-99.99,1.0,HOBO +U30 +Weather +,2013-01-13 06:30:00,
2013-01-12 23:35:00,9.3,5.1,-100.00,WSW,248,5.6,11.9,82,0.00,,,-99.99,1.0,HOBO +U30 +Weather +,2013-01-13 06:35:00,
2013-01-12 23:40:00,9.6,5.3,-100.00,WSW,246,7.4,10.7,82,0.00,,,-99.99,1.0,HOBO +U30 +Weather +,2013-01-13 06:40:00,
2013-01-12 23:45:00,9.7,5.1,-100.00,WSW,248,8.5,13.0,81,0.00,,,-99.99,1.0,HOBO +U30 +Weather +,2013-01-13 06:45:00,
2013-01-12 23:50:00,9.9,5.1,-100.00,WSW,250,8.5,12.3,80,0.00,,,-99.99,1.0,HOBO +U30 +Weather +,2013-01-13 06:50:00,
2013-01-12 23:55:00,9.6,4.9,-100.00,WSW,248,7.4,10.7,80,0.00,,,-99.99,1.0,HOBO +U30 +Weather +,2013-01-13 06:55:00,